Time;durP1;ratioP1;P1;durP2;ratioP2;P2;SDS_P1;SDS_P2;PMS_P1;PMS_P2;Temp;Humidity;BMP_temperature;BMP_pressure;BME280_temperature;BME280_humidity;BME280_pressure;Samples;Min_cycle;Max_cycle;Signal;HPM_P1;HPM_P2
2022/04/15 00:01:21;;;;;;;5.55;3.20;;;17.70;67.70;;;;;;3886188;30;20081;-66
2022/04/15 00:03:43;;;;;;;5.00;2.90;;;17.70;67.40;;;;;;3886022;30;20061;-66
2022/04/15 00:06:08;;;;;;;5.40;3.30;;;17.70;67.60;;;;;;3886096;30;20115;-67
2022/04/15 00:08:30;;;;;;;6.43;3.28;;;17.70;67.70;;;;;;3886063;30;20149;-67
2022/04/15 00:10:53;;;;;;;6.55;2.63;;;17.70;67.80;;;;;;3896847;30;20467;-67
2022/04/15 00:13:19;;;;;;;4.50;2.28;;;17.70;68.00;;;;;;3900007;30;20052;-66
2022/04/15 00:15:42;;;;;;;4.72;3.00;;;17.70;67.30;;;;;;3887094;30;20057;-66
2022/04/15 00:18:05;;;;;;;6.70;3.60;;;17.70;67.70;;;;;;3899795;30;20473;-67
2022/04/15 00:20:27;;;;;;;7.90;3.22;;;17.60;67.70;;;;;;3899784;30;20064;-67
2022/04/15 00:22:52;;;;;;;4.85;2.90;;;17.60;67.80;;;;;;3899787;30;20057;-67
2022/04/15 00:25:14;;;;;;;5.20;2.50;;;17.60;67.90;;;;;;3899613;30;20056;-67
2022/04/15 00:27:36;;;;;;;4.68;2.65;;;17.60;67.90;;;;;;3899733;30;20061;-67
2022/04/15 00:29:59;;;;;;;6.82;2.78;;;17.60;67.90;;;;;;3899809;30;20072;-68
2022/04/15 00:32:21;;;;;;;7.20;2.97;;;17.60;68.00;;;;;;3899787;30;20057;-67
2022/04/15 00:34:45;;;;;;;6.80;3.67;;;17.60;68.00;;;;;;3886828;30;20565;-67
2022/04/15 00:37:07;;;;;;;4.80;2.85;;;17.60;68.00;;;;;;3900068;30;20061;-67
2022/04/15 00:39:30;;;;;;;3.78;3.13;;;17.60;68.00;;;;;;3899016;30;20435;-67
2022/04/15 00:41:53;;;;;;;3.00;2.80;;;17.60;67.90;;;;;;3899650;30;20147;-65
2022/04/15 00:44:16;;;;;;;3.47;2.63;;;17.60;67.80;;;;;;3885704;30;20515;-65
2022/04/15 00:46:38;;;;;;;5.63;2.63;;;17.60;67.70;;;;;;3899429;30;20449;-65
2022/04/15 00:49:00;;;;;;;2.83;2.53;;;17.60;67.70;;;;;;3899712;30;20060;-65
2022/04/15 00:51:24;;;;;;;4.35;2.35;;;17.60;67.60;;;;;;3899607;30;20115;-65
2022/04/15 00:53:47;;;;;;;3.28;2.03;;;17.60;67.30;;;;;;3899447;30;20053;-65
2022/04/15 00:56:10;;;;;;;7.22;2.67;;;17.60;67.00;;;;;;3899509;30;20122;-65
2022/04/15 00:58:34;;;;;;;3.30;2.17;;;17.50;66.40;;;;;;3899627;30;20053;-65
2022/04/15 01:00:57;;;;;;;2.95;2.15;;;17.50;66.60;;;;;;3898896;30;20056;-65
2022/04/15 01:03:21;;;;;;;5.07;2.10;;;17.50;66.80;;;;;;3898823;30;20083;-65
2022/04/15 01:05:44;;;;;;;7.05;3.00;;;17.50;64.90;;;;;;3899111;30;20138;-65
2022/04/15 01:08:09;;;;;;;3.90;2.38;;;17.50;65.30;;;;;;3899485;30;20087;-65
2022/04/15 01:10:36;;;;;;;2.92;2.40;;;17.50;66.20;;;;;;3899334;30;20490;-65
2022/04/15 01:12:59;;;;;;;3.67;2.25;;;17.40;66.20;;;;;;3899066;30;20506;-65
2022/04/15 01:15:42;;;;;;;2.40;2.13;;;17.40;66.00;;;;;;3899190;30;20057;-65
2022/04/15 01:18:04;;;;;;;4.38;2.58;;;17.40;65.90;;;;;;3899287;30;20056;-65
2022/04/15 01:20:27;;;;;;;5.07;2.63;;;17.40;65.10;;;;;;3898916;30;20492;-65
2022/04/15 01:22:56;;;;;;;4.90;2.67;;;17.40;65.70;;;;;;3898824;30;20057;-65
2022/04/15 01:25:19;;;;;;;4.13;2.35;;;17.40;65.60;;;;;;3898629;30;20071;-65
2022/04/15 01:27:43;;;;;;;4.45;2.28;;;17.40;66.40;;;;;;3898991;30;20082;-65
2022/04/15 01:30:07;;;;;;;3.85;2.20;;;17.40;67.10;;;;;;3899024;30;20501;-65
2022/04/15 01:32:29;;;;;;;3.67;2.90;;;17.30;67.40;;;;;;3885987;30;20086;-65
2022/04/15 01:34:52;;;;;;;6.88;2.72;;;17.30;68.20;;;;;;3899376;30;20146;-65
2022/04/15 01:37:17;;;;;;;7.55;2.45;;;17.30;67.50;;;;;;3899227;30;20128;-65
2022/04/15 01:39:41;;;;;;;5.70;2.72;;;17.30;67.60;;;;;;3883458;30;20068;-65
2022/04/15 01:42:03;;;;;;;4.80;2.70;;;17.30;67.30;;;;;;3884884;30;20065;-67
2022/04/15 01:44:25;;;;;;;4.35;2.63;;;17.30;67.10;;;;;;3884636;30;20141;-66
2022/04/15 01:46:47;;;;;;;8.15;2.97;;;17.30;67.60;;;;;;3893258;30;20549;-66
2022/04/15 01:49:10;;;;;;;4.80;3.10;;;17.30;67.70;;;;;;3898973;30;20053;-67
2022/04/15 01:51:34;;;;;;;6.82;2.72;;;17.30;67.80;;;;;;3898944;30;20057;-65
2022/04/15 01:53:56;;;;;;;11.75;3.60;;;17.30;67.80;;;;;;3898599;30;20052;-66
2022/04/15 01:56:20;;;;;;;9.32;3.35;;;17.30;68.00;;;;;;3884021;30;20163;-66
2022/04/15 01:58:42;;;;;;;7.78;3.20;;;17.30;66.80;;;;;;3897686;30;20069;-66
2022/04/15 02:01:06;;;;;;;10.45;3.33;;;17.30;65.70;;;;;;3898738;30;20057;-66
2022/04/15 02:03:28;;;;;;;7.55;3.72;;;17.30;67.10;;;;;;3885472;30;20065;-66
2022/04/15 02:05:50;;;;;;;8.73;3.40;;;17.30;67.80;;;;;;3898060;30;20056;-66
2022/04/15 02:08:13;;;;;;;7.28;3.10;;;17.30;67.60;;;;;;3898523;30;20053;-65
2022/04/15 02:10:35;;;;;;;9.00;3.20;;;17.20;67.50;;;;;;3898206;30;20086;-65
2022/04/15 02:12:58;;;;;;;9.20;3.60;;;17.20;67.10;;;;;;3898075;30;20110;-65
2022/04/15 02:15:20;;;;;;;12.65;3.58;;;17.20;67.60;;;;;;3884262;30;20050;-65
2022/04/15 02:17:43;;;;;;;9.40;3.42;;;17.20;65.40;;;;;;3898311;30;20116;-66
2022/04/15 02:20:06;;;;;;;9.60;3.60;;;17.20;66.70;;;;;;3897771;30;20080;-66
2022/04/15 02:22:28;;;;;;;5.88;3.58;;;17.20;67.30;;;;;;3897821;30;20063;-66
2022/04/15 02:24:50;;;;;;;9.70;4.15;;;17.20;67.90;;;;;;3897638;30;20108;-66
2022/04/15 02:27:13;;;;;;;13.15;4.25;;;17.20;68.00;;;;;;3897965;30;20461;-65
2022/04/15 02:29:36;;;;;;;8.05;3.92;;;17.20;69.10;;;;;;3897955;30;20057;-65
2022/04/15 02:31:58;;;;;;;9.07;4.05;;;17.20;68.20;;;;;;3872226;30;20061;-68
2022/04/15 02:34:20;;;;;;;9.07;3.72;;;17.20;67.20;;;;;;3897018;30;20152;-67
2022/04/15 02:36:42;;;;;;;8.68;4.45;;;17.20;67.90;;;;;;3898415;30;20113;-67
2022/04/15 02:39:10;;;;;;;10.40;4.35;;;17.20;68.00;;;;;;3885147;30;20049;-67
2022/04/15 02:41:32;;;;;;;7.10;4.90;;;17.20;67.60;;;;;;3897357;30;20065;-68
2022/04/15 02:43:54;;;;;;;7.50;5.25;;;17.20;65.00;;;;;;3898075;30;20057;-67
2022/04/15 02:46:19;;;;;;;13.02;6.15;;;17.20;65.20;;;;;;3883807;30;20073;-68
2022/04/15 02:48:42;;;;;;;8.07;5.65;;;17.10;64.40;;;;;;3896831;30;20052;-67
2022/04/15 02:51:04;;;;;;;6.93;6.22;;;17.10;64.40;;;;;;3897928;30;20049;-67
2022/04/15 02:53:26;;;;;;;9.80;6.22;;;17.10;63.40;;;;;;3884652;30;20065;-68
2022/04/15 02:55:49;;;;;;;7.07;5.88;;;17.10;64.30;;;;;;3897089;30;20072;-67
2022/04/15 02:58:11;;;;;;;7.45;6.30;;;17.00;65.70;;;;;;3898010;30;20056;-67
2022/04/15 03:00:33;;;;;;;8.73;6.88;;;17.00;66.50;;;;;;3897866;30;20147;-67
2022/04/15 03:02:56;;;;;;;7.15;5.80;;;17.00;65.60;;;;;;3897606;30;20130;-68
2022/04/15 03:05:18;;;;;;;7.65;6.28;;;17.00;65.40;;;;;;3897513;30;20055;-67
2022/04/15 03:07:41;;;;;;;9.85;6.00;;;16.90;64.50;;;;;;3897347;30;20151;-67
2022/04/15 03:10:03;;;;;;;9.35;5.93;;;16.90;64.20;;;;;;3897876;30;20048;-67
2022/04/15 03:12:25;;;;;;;9.25;6.25;;;16.90;64.60;;;;;;3897954;30;20060;-68
2022/04/15 03:14:50;;;;;;;5.85;5.22;;;16.90;65.90;;;;;;3897268;30;20057;-70
2022/04/15 03:17:12;;;;;;;4.93;4.40;;;16.90;65.60;;;;;;3897446;30;20064;-68
2022/04/15 03:19:36;;;;;;;4.95;4.45;;;16.90;65.00;;;;;;3897540;30;20152;-68
2022/04/15 03:21:58;;;;;;;5.25;4.10;;;16.80;63.70;;;;;;3897709;30;20107;-68
2022/04/15 03:24:20;;;;;;;7.68;4.22;;;16.80;63.10;;;;;;3897510;30;20056;-68
2022/04/15 03:26:42;;;;;;;5.22;3.90;;;16.80;64.60;;;;;;3897770;30;20057;-68
2022/04/15 03:29:05;;;;;;;4.22;3.88;;;16.80;64.10;;;;;;3884340;30;20057;-68
2022/04/15 03:31:27;;;;;;;3.92;3.63;;;16.80;64.00;;;;;;3897843;30;20115;-68
2022/04/15 03:33:50;;;;;;;3.20;3.00;;;16.70;64.20;;;;;;3897560;30;20049;-69
2022/04/15 03:36:14;;;;;;;3.58;3.28;;;16.70;64.20;;;;;;3896621;30;20060;-68
2022/04/15 03:38:36;;;;;;;3.70;3.40;;;16.70;64.10;;;;;;3897479;30;20052;-68
2022/04/15 03:40:58;;;;;;;3.88;3.38;;;16.70;63.20;;;;;;3897461;30;20064;-68
2022/04/15 03:43:20;;;;;;;4.18;3.60;;;16.70;62.10;;;;;;3897383;30;20134;-68
2022/04/15 03:45:42;;;;;;;3.97;3.03;;;16.70;62.30;;;;;;3897079;30;20145;-68
2022/04/15 03:48:05;;;;;;;3.15;2.95;;;16.60;62.50;;;;;;3897189;30;20053;-68
2022/04/15 03:50:27;;;;;;;3.25;3.00;;;16.60;61.70;;;;;;3897607;30;22144;-68
2022/04/15 03:52:51;;;;;;;3.95;3.30;;;16.60;61.90;;;;;;3896546;30;20085;-67
2022/04/15 03:55:14;;;;;;;3.33;3.03;;;16.60;63.50;;;;;;3897359;30;20061;-68
2022/04/15 03:57:36;;;;;;;2.60;2.33;;;16.60;62.70;;;;;;3897013;30;20053;-68
2022/04/15 03:59:58;;;;;;;3.47;1.77;;;16.60;62.40;;;;;;3897496;30;20119;-68
2022/04/15 04:02:20;;;;;;;3.55;2.10;;;16.60;61.80;;;;;;3897164;30;20053;-65
2022/04/15 04:04:42;;;;;;;2.75;2.60;;;16.50;63.40;;;;;;3897368;30;20550;-65
2022/04/15 04:07:05;;;;;;;2.45;2.22;;;16.50;61.70;;;;;;3897011;30;20129;-65
2022/04/15 04:09:28;;;;;;;2.53;2.33;;;16.50;62.60;;;;;;3897087;30;20496;-66
2022/04/15 04:11:50;;;;;;;3.25;2.75;;;16.50;62.70;;;;;;3897280;30;20053;-64
2022/04/15 04:14:12;;;;;;;2.95;2.70;;;16.50;63.40;;;;;;3897223;30;20081;-65
2022/04/15 04:16:36;;;;;;;3.30;2.50;;;16.50;63.40;;;;;;3897487;30;20084;-67
2022/04/15 04:18:58;;;;;;;2.90;2.67;;;16.50;63.50;;;;;;3898480;30;20149;-68
2022/04/15 04:21:20;;;;;;;2.95;2.50;;;16.50;62.80;;;;;;3899377;30;20057;-68
2022/04/15 04:23:43;;;;;;;3.13;2.30;;;16.40;62.80;;;;;;3899791;30;20139;-67
2022/04/15 04:26:06;;;;;;;3.10;2.25;;;16.50;63.70;;;;;;3900018;30;20057;-68
2022/04/15 04:28:29;;;;;;;3.25;2.65;;;16.40;63.80;;;;;;3886634;30;20057;-67
2022/04/15 04:30:52;;;;;;;2.67;2.47;;;16.40;64.60;;;;;;3899383;30;20057;-68
2022/04/15 04:33:14;;;;;;;4.10;2.40;;;16.50;65.30;;;;;;3899990;30;20241;-67
2022/04/15 04:35:37;;;;;;;2.30;2.10;;;16.50;65.50;;;;;;3899499;30;20069;-67
2022/04/15 04:38:00;;;;;;;2.30;2.17;;;16.50;64.40;;;;;;3900035;30;20053;-67
2022/04/15 04:40:22;;;;;;;2.88;2.47;;;16.50;63.40;;;;;;3900658;30;20067;-68
2022/04/15 04:42:47;;;;;;;1.95;1.85;;;16.50;62.90;;;;;;3886274;30;20061;-68
2022/04/15 04:45:11;;;;;;;2.05;1.90;;;16.50;62.20;;;;;;3885605;30;20474;-68
2022/04/15 04:47:34;;;;;;;4.55;2.70;;;16.50;63.30;;;;;;3885159;30;20458;-66
2022/04/15 04:49:56;;;;;;;3.08;2.88;;;16.50;62.50;;;;;;3885048;30;20498;-68
2022/04/15 04:52:20;;;;;;;3.05;2.58;;;16.50;63.50;;;;;;3897408;30;20509;-66
2022/04/15 04:54:42;;;;;;;3.83;2.72;;;16.50;63.00;;;;;;3900400;30;20056;-67
2022/04/15 04:57:04;;;;;;;2.53;2.33;;;16.40;62.60;;;;;;3899768;30;20077;-68
2022/04/15 04:59:29;;;;;;;4.20;2.70;;;16.40;62.80;;;;;;3898908;30;20072;-66
2022/04/15 05:01:51;;;;;;;2.45;2.30;;;16.40;62.60;;;;;;3899342;30;20056;-66
2022/04/15 05:04:14;;;;;;;3.65;2.65;;;16.40;61.80;;;;;;3899421;30;20053;-68
2022/04/15 05:06:36;;;;;;;3.80;2.38;;;16.40;61.90;;;;;;3898985;30;20063;-66
2022/04/15 05:08:58;;;;;;;3.83;1.98;;;16.30;62.60;;;;;;3899204;30;20045;-66
2022/04/15 05:11:20;;;;;;;2.75;2.33;;;16.30;61.60;;;;;;3884785;30;20053;-66
2022/04/15 05:13:43;;;;;;;4.75;2.15;;;16.30;62.90;;;;;;3884994;30;20057;-67
2022/04/15 05:16:06;;;;;;;4.03;2.20;;;16.30;63.70;;;;;;3884745;30;20488;-66
2022/04/15 05:18:29;;;;;;;3.83;2.20;;;16.30;64.10;;;;;;3884717;30;20068;-67
2022/04/15 05:20:51;;;;;;;2.55;2.30;;;16.30;65.00;;;;;;3897114;30;20103;-67
2022/04/15 05:23:13;;;;;;;5.13;2.83;;;16.30;65.50;;;;;;3886259;30;20064;-67
2022/04/15 05:25:35;;;;;;;5.60;3.03;;;16.30;65.30;;;;;;3899392;30;20493;-67
2022/04/15 05:27:59;;;;;;;4.75;3.10;;;16.30;65.80;;;;;;3898887;30;20092;-67
2022/04/15 05:30:22;;;;;;;3.95;2.90;;;16.30;66.10;;;;;;3898276;30;20064;-67
2022/04/15 05:32:45;;;;;;;3.13;2.88;;;16.40;66.20;;;;;;3898881;30;20053;-67
2022/04/15 05:35:08;;;;;;;2.83;2.63;;;16.40;66.30;;;;;;3898639;30;20103;-67
2022/04/15 05:37:30;;;;;;;5.05;3.10;;;16.40;66.50;;;;;;3898744;30;20463;-66
2022/04/15 05:39:52;;;;;;;5.47;3.75;;;16.40;67.50;;;;;;3898321;30;20060;-67
2022/04/15 05:42:14;;;;;;;3.95;3.67;;;16.40;66.60;;;;;;3898943;30;20053;-67
2022/04/15 05:44:36;;;;;;;5.88;3.53;;;16.40;67.50;;;;;;3899184;30;20064;-68
2022/04/15 05:46:59;;;;;;;4.28;3.97;;;16.50;66.60;;;;;;3898769;30;20430;-67
2022/04/15 05:49:24;;;;;;;4.88;4.47;;;16.40;66.50;;;;;;3898307;30;20502;-67
2022/04/15 05:51:46;;;;;;;6.90;4.32;;;16.50;66.60;;;;;;3898472;30;20071;-67
2022/04/15 05:54:09;;;;;;;7.07;4.50;;;16.50;66.70;;;;;;3898034;30;20498;-62
2022/04/15 05:56:31;;;;;;;8.73;5.10;;;16.50;67.10;;;;;;3898521;30;20076;-63
2022/04/15 05:58:53;;;;;;;5.75;4.93;;;16.50;67.30;;;;;;3898446;30;20048;-63
2022/04/15 06:01:17;;;;;;;7.15;5.00;;;16.50;67.40;;;;;;3898399;30;20500;-63
2022/04/15 06:03:39;;;;;;;7.22;4.82;;;16.60;67.00;;;;;;3898279;30;20419;-63
2022/04/15 06:06:02;;;;;;;9.98;5.93;;;16.60;66.70;;;;;;3884930;30;20425;-63
2022/04/15 06:08:24;;;;;;;7.70;5.25;;;16.60;67.10;;;;;;3898771;30;20056;-64
2022/04/15 06:10:47;;;;;;;7.68;5.82;;;16.60;66.80;;;;;;3898100;30;20057;-63
2022/04/15 06:13:19;;;;;;;6.72;5.35;;;16.50;67.00;;;;;;3897915;30;20061;-65
2022/04/15 06:15:51;;;;;;;12.55;6.40;;;16.50;65.90;;;;;;3898298;30;20052;-63
2022/04/15 06:18:13;;;;;;;9.70;6.20;;;16.50;65.00;;;;;;3897895;30;20388;-64
2022/04/15 06:20:35;;;;;;;10.75;7.45;;;16.50;64.50;;;;;;3897980;30;20398;-63
2022/04/15 06:22:59;;;;;;;13.27;7.82;;;16.50;63.30;;;;;;3897211;30;20056;-65
2022/04/15 06:25:22;;;;;;;17.25;8.43;;;16.50;63.60;;;;;;3885002;30;20068;-64
2022/04/15 06:27:44;;;;;;;14.27;9.35;;;16.50;64.10;;;;;;3884924;30;20053;-64
2022/04/15 06:30:08;;;;;;;14.68;9.85;;;16.50;62.70;;;;;;3897946;30;20060;-64
2022/04/15 06:32:29;;;;;;;15.88;9.95;;;16.50;62.60;;;;;;3898084;30;20148;-64
2022/04/15 06:34:52;;;;;;;16.75;10.65;;;16.40;61.90;;;;;;3897787;30;20414;-65
2022/04/15 06:37:14;;;;;;;12.57;10.05;;;16.40;63.20;;;;;;3898098;30;20052;-64
2022/04/15 06:39:37;;;;;;;18.77;10.75;;;16.40;61.70;;;;;;3897818;30;20060;-64
2022/04/15 06:41:59;;;;;;;17.77;10.85;;;16.30;61.80;;;;;;3897773;30;20561;-63
2022/04/15 06:44:23;;;;;;;16.38;10.75;;;16.30;61.30;;;;;;3897974;30;20069;-64
2022/04/15 06:46:45;;;;;;;19.25;10.70;;;16.20;61.80;;;;;;3898278;30;20107;-64
2022/04/15 06:49:08;;;;;;;16.38;9.93;;;16.20;62.00;;;;;;3897699;30;20060;-64
2022/04/15 06:51:30;;;;;;;14.57;10.30;;;16.10;61.70;;;;;;3898005;30;20049;-64
2022/04/15 06:53:53;;;;;;;17.73;10.40;;;16.10;62.40;;;;;;3897542;30;20098;-64
2022/04/15 06:56:17;;;;;;;11.68;8.85;;;16.10;62.10;;;;;;3897353;30;20619;-64
2022/04/15 06:58:38;;;;;;;16.90;8.63;;;16.10;61.90;;;;;;3897514;30;20079;-64
2022/04/15 07:01:00;;;;;;;13.77;8.38;;;16.00;62.00;;;;;;3897635;30;20477;-64
2022/04/15 07:03:24;;;;;;;13.95;8.38;;;16.00;61.80;;;;;;3897776;30;20140;-66
2022/04/15 07:05:47;;;;;;;20.48;7.70;;;16.00;62.20;;;;;;3898360;30;20060;-65
2022/04/15 07:08:10;;;;;;;14.43;7.75;;;15.90;62.00;;;;;;3897878;30;20465;-66
2022/04/15 07:10:32;;;;;;;13.20;6.72;;;15.90;62.10;;;;;;3897443;30;20060;-65
2022/04/15 07:12:56;;;;;;;14.10;6.88;;;15.90;62.10;;;;;;3897404;30;20064;-65
2022/04/15 07:15:20;;;;;;;13.20;7.28;;;15.80;62.00;;;;;;3897370;30;20581;-66
2022/04/15 07:17:42;;;;;;;13.25;7.22;;;15.80;62.00;;;;;;3897521;30;20061;-68
2022/04/15 07:20:06;;;;;;;10.73;6.70;;;15.80;63.10;;;;;;3896959;30;20061;-67
2022/04/15 07:22:28;;;;;;;12.75;6.05;;;15.80;62.50;;;;;;3897752;30;20056;-67
2022/04/15 07:24:51;;;;;;;12.00;6.45;;;15.70;62.80;;;;;;3897835;30;20060;-69
2022/04/15 07:27:13;;;;;;;10.95;5.90;;;15.70;63.10;;;;;;3897889;30;20458;-68
2022/04/15 07:29:37;;;;;;;12.85;6.63;;;15.70;63.20;;;;;;3897518;30;20139;-68
2022/04/15 07:31:59;;;;;;;11.52;5.55;;;15.70;63.00;;;;;;3897956;30;20095;-67
2022/04/15 07:34:21;;;;;;;10.75;6.10;;;15.70;62.90;;;;;;3897457;30;20134;-67
2022/04/15 07:36:45;;;;;;;8.98;5.18;;;15.70;62.60;;;;;;3897524;30;20063;-67
2022/04/15 07:39:09;;;;;;;12.23;6.13;;;15.70;63.10;;;;;;3897157;30;20073;-67
2022/04/15 07:41:31;;;;;;;7.28;5.57;;;15.70;62.60;;;;;;3897306;30;20688;-67
2022/04/15 07:43:54;;;;;;;9.05;6.07;;;15.70;63.20;;;;;;3896997;30;20095;-66
2022/04/15 07:46:18;;;;;;;9.90;6.20;;;15.60;62.80;;;;;;3884442;30;20410;-68
2022/04/15 07:48:40;;;;;;;10.25;5.68;;;15.60;62.80;;;;;;3897189;30;20069;-67
2022/04/15 07:51:03;;;;;;;8.90;5.55;;;15.70;62.60;;;;;;3895382;30;20073;-67
2022/04/15 07:53:25;;;;;;;8.88;5.57;;;15.60;62.70;;;;;;3897520;30;20057;-68
2022/04/15 07:55:47;;;;;;;12.63;5.93;;;15.70;62.90;;;;;;3900092;30;20469;-67
2022/04/15 07:58:09;;;;;;;7.25;5.28;;;15.70;63.70;;;;;;3899207;30;20161;-67
2022/04/15 08:00:34;;;;;;;10.98;5.60;;;15.70;62.70;;;;;;3885310;30;20577;-68
2022/04/15 08:02:58;;;;;;;12.90;4.90;;;15.70;62.30;;;;;;3885756;30;20053;-66
2022/04/15 08:05:19;;;;;;;11.95;5.70;;;15.70;63.00;;;;;;3893369;30;20130;-67
2022/04/15 08:07:42;;;;;;;10.93;5.53;;;15.70;62.60;;;;;;3899861;30;20065;-67
2022/04/15 08:10:06;;;;;;;6.68;4.78;;;15.70;62.80;;;;;;3899869;30;20149;-67
2022/04/15 08:12:28;;;;;;;8.85;5.68;;;15.70;62.70;;;;;;3891313;30;20062;-63
2022/04/15 08:14:54;;;;;;;11.98;5.65;;;15.70;62.50;;;;;;3885682;30;20470;-64
2022/04/15 08:17:16;;;;;;;13.23;5.30;;;15.70;63.50;;;;;;3899341;30;20057;-64
2022/04/15 08:19:40;;;;;;;7.93;4.97;;;15.80;64.20;;;;;;3889026;30;20057;-63
2022/04/15 08:22:02;;;;;;;11.75;5.43;;;15.80;63.70;;;;;;3889944;30;20065;-65
2022/04/15 08:24:24;;;;;;;10.48;5.32;;;15.80;64.20;;;;;;3899887;30;20115;-63
2022/04/15 08:26:49;;;;;;;9.52;5.78;;;15.80;64.40;;;;;;3899946;30;20063;-64
2022/04/15 08:29:12;;;;;;;9.60;4.93;;;15.90;63.10;;;;;;3899637;30;20060;-65
2022/04/15 08:31:33;;;;;;;11.52;5.00;;;15.90;63.90;;;;;;3899496;30;20056;-64
2022/04/15 08:33:56;;;;;;;9.52;5.65;;;15.90;64.50;;;;;;3899842;30;20087;-64
2022/04/15 08:36:19;;;;;;;10.65;5.07;;;15.90;63.10;;;;;;3886449;30;20078;-64
2022/04/15 08:38:41;;;;;;;7.20;4.85;;;16.00;62.00;;;;;;3899866;30;20487;-65
2022/04/15 08:41:06;;;;;;;13.48;5.47;;;16.00;63.20;;;;;;3899447;30;21110;-64
2022/04/15 08:43:29;;;;;;;10.80;5.60;;;16.00;62.80;;;;;;3899316;30;20084;-66
2022/04/15 08:45:51;;;;;;;12.52;5.80;;;16.00;61.50;;;;;;3899942;30;20826;-67
2022/04/15 08:48:15;;;;;;;8.85;5.10;;;16.00;61.10;;;;;;3899621;30;20501;-67
2022/04/15 08:50:37;;;;;;;8.57;5.57;;;15.90;61.50;;;;;;3899904;30;20085;-66
2022/04/15 08:53:03;;;;;;;5.43;4.90;;;16.00;63.50;;;;;;3900009;30;20139;-65
2022/04/15 08:55:27;;;;;;;6.72;5.20;;;16.00;64.30;;;;;;3885964;30;20074;-66
2022/04/15 08:57:50;;;;;;;9.18;6.07;;;16.00;64.40;;;;;;3886545;30;20576;-66
2022/04/15 09:00:14;;;;;;;9.20;6.28;;;16.00;63.60;;;;;;3899418;30;20057;-65
2022/04/15 09:02:37;;;;;;;9.18;5.38;;;16.00;63.40;;;;;;3899539;30;20418;-66
2022/04/15 09:05:05;;;;;;;10.15;5.18;;;16.00;61.10;;;;;;3898640;30;20056;-66
2022/04/15 09:07:29;;;;;;;8.23;5.45;;;16.00;62.70;;;;;;3886422;30;20057;-65
2022/04/15 09:09:57;;;;;;;7.72;6.25;;;16.00;63.10;;;;;;3885849;30;20057;-66
2022/04/15 09:12:21;;;;;;;10.98;5.70;;;16.10;62.80;;;;;;3899283;30;20057;-65
2022/04/15 09:14:45;;;;;;;10.38;5.90;;;16.10;62.20;;;;;;3899482;30;20138;-64
2022/04/15 09:17:29;;;;;;;9.70;5.55;;;16.10;62.90;;;;;;3898666;30;20121;-64
2022/04/15 09:19:53;;;;;;;8.98;5.60;;;16.10;62.90;;;;;;3899218;30;20161;-65
2022/04/15 09:22:18;;;;;;;9.20;6.03;;;16.10;62.20;;;;;;3898915;30;20055;-65
2022/04/15 09:24:42;;;;;;;11.07;6.40;;;16.10;62.60;;;;;;3899097;30;20057;-65
2022/04/15 09:27:06;;;;;;;7.28;5.95;;;16.10;63.30;;;;;;3898788;30;20143;-65
2022/04/15 09:29:33;;;;;;;9.63;5.75;;;16.10;62.50;;;;;;3886034;30;20463;-65
2022/04/15 09:31:56;;;;;;;7.68;5.93;;;16.10;61.40;;;;;;3898987;30;20405;-64
2022/04/15 09:34:18;;;;;;;9.27;6.90;;;16.10;60.50;;;;;;3899499;30;20123;-65
2022/04/15 09:36:41;;;;;;;14.52;6.72;;;16.10;60.40;;;;;;3898907;30;20150;-65
2022/04/15 09:39:10;;;;;;;15.30;6.72;;;16.10;60.90;;;;;;3899091;30;20106;-66
2022/04/15 09:41:33;;;;;;;8.98;5.80;;;16.10;61.20;;;;;;3897702;30;20057;-65
2022/04/15 09:43:57;;;;;;;11.40;6.57;;;16.10;60.60;;;;;;3899018;30;20061;-67
2022/04/15 09:46:20;;;;;;;13.63;6.25;;;16.10;59.80;;;;;;3897834;30;20057;-68
2022/04/15 09:49:01;;;;;;;11.65;6.85;;;16.10;60.70;;;;;;3885774;30;20444;-67
2022/04/15 09:51:23;;;;;;;9.10;6.47;;;16.10;59.90;;;;;;3897659;30;20617;-67
2022/04/15 09:53:51;;;;;;;10.23;6.00;;;16.00;60.20;;;;;;3898283;30;20490;-67
2022/04/15 09:56:14;;;;;;;9.07;6.22;;;16.10;61.30;;;;;;3885247;30;20079;-66
2022/04/15 09:58:38;;;;;;;8.13;6.15;;;16.10;62.10;;;;;;3885584;30;20485;-66
2022/04/15 10:01:03;;;;;;;10.48;6.40;;;16.10;61.50;;;;;;3898869;30;20057;-66
2022/04/15 10:03:27;;;;;;;10.00;7.22;;;16.10;61.60;;;;;;3898975;30;20049;-66
2022/04/15 10:05:50;;;;;;;11.05;7.07;;;16.10;60.40;;;;;;3898593;30;20049;-64
2022/04/15 10:08:13;;;;;;;11.27;6.30;;;16.10;60.10;;;;;;3898563;30;20560;-64
2022/04/15 10:10:36;;;;;;;9.38;6.72;;;16.10;61.90;;;;;;3898131;30;20143;-64
2022/04/15 10:13:00;;;;;;;11.98;6.40;;;16.10;61.50;;;;;;3898361;30;20123;-66
2022/04/15 10:15:23;;;;;;;10.38;6.00;;;16.10;61.60;;;;;;3898286;30;20068;-64
2022/04/15 10:17:47;;;;;;;8.65;6.38;;;16.10;61.40;;;;;;3884838;30;20072;-65
2022/04/15 10:20:10;;;;;;;9.93;6.63;;;16.10;60.70;;;;;;3898156;30;20065;-64
2022/04/15 10:22:33;;;;;;;8.80;5.93;;;16.10;60.30;;;;;;3897942;30;20053;-64
2022/04/15 10:24:55;;;;;;;8.57;5.55;;;16.10;60.70;;;;;;3894270;30;20053;-64
2022/04/15 10:27:24;;;;;;;7.25;4.97;;;16.00;60.30;;;;;;3898076;30;20069;-65
2022/04/15 10:29:59;;;;;;;6.78;4.88;;;16.00;61.10;;;;;;3897924;30;20485;-65
2022/04/15 10:32:22;;;;;;;7.07;4.88;;;16.00;61.10;;;;;;3898023;30;20057;-64
2022/04/15 10:34:47;;;;;;;5.28;4.55;;;16.00;60.90;;;;;;3894645;30;20498;-66
2022/04/15 10:37:09;;;;;;;8.02;5.53;;;16.00;63.20;;;;;;3883678;30;20495;-66
2022/04/15 10:39:47;;;;;;;5.93;4.95;;;16.00;61.10;;;;;;3883924;30;20168;-66
2022/04/15 10:42:18;;;;;;;8.43;5.88;;;16.00;60.40;;;;;;3891491;30;20057;-67
2022/04/15 10:44:41;;;;;;;6.20;5.60;;;16.00;62.80;;;;;;3897269;30;20144;-66
2022/04/15 10:47:27;;;;;;;7.75;5.28;;;16.00;62.10;;;;;;3888034;30;20140;-66
2022/04/15 10:49:56;;;;;;;6.63;4.97;;;16.00;61.10;;;;;;3883914;30;20109;-68
2022/04/15 10:52:22;;;;;;;8.45;4.95;;;16.00;61.10;;;;;;3897453;30;20525;-67
2022/04/15 10:54:46;;;;;;;6.65;4.80;;;16.00;61.50;;;;;;3897096;30;20107;-63
2022/04/15 10:57:14;;;;;;;6.07;4.60;;;16.00;61.30;;;;;;3897670;30;20555;-63
2022/04/15 11:02:17;;;;;;;5.20;4.37;;;16.00;61.10;;;;;;3897953;30;20086;-65
2022/04/15 11:04:49;;;;;;;4.57;4.13;;;16.00;61.30;;;;;;3882690;30;20315;-64
2022/04/15 11:07:25;;;;;;;7.82;4.18;;;16.00;61.20;;;;;;3883176;30;20147;-63
2022/04/15 11:09:47;;;;;;;6.10;4.03;;;16.00;61.10;;;;;;3883232;30;20593;-63
2022/04/15 11:12:11;;;;;;;5.13;4.43;;;16.00;61.90;;;;;;3883445;30;20061;-64
2022/04/15 11:14:35;;;;;;;5.28;4.78;;;16.00;62.30;;;;;;3894904;30;20080;-64
2022/04/15 11:17:00;;;;;;;7.30;4.90;;;16.00;62.40;;;;;;3898029;30;20045;-64
2022/04/15 11:19:25;;;;;;;7.07;5.20;;;16.00;61.70;;;;;;3898023;30;20470;-64
2022/04/15 11:21:50;;;;;;;6.03;5.35;;;16.00;61.10;;;;;;3898293;30;20115;-64
2022/04/15 11:24:16;;;;;;;7.72;4.82;;;16.00;62.10;;;;;;3882044;30;20068;-64
2022/04/15 11:26:39;;;;;;;5.18;4.68;;;16.10;62.00;;;;;;3894442;30;20084;-64
2022/04/15 11:29:02;;;;;;;5.07;4.30;;;16.00;62.40;;;;;;3894986;30;20062;-65
2022/04/15 11:31:26;;;;;;;8.02;5.25;;;16.00;62.90;;;;;;3900708;30;20069;-65
2022/04/15 11:33:49;;;;;;;9.57;4.95;;;16.00;61.20;;;;;;3900669;30;20057;-66
2022/04/15 11:36:11;;;;;;;7.75;4.80;;;16.10;62.10;;;;;;3900907;30;20443;-66
2022/04/15 11:38:34;;;;;;;5.93;4.57;;;16.10;60.90;;;;;;3900527;30;20057;-65
2022/04/15 11:40:58;;;;;;;4.68;4.05;;;16.10;61.20;;;;;;3900354;30;20181;-66
2022/04/15 11:43:26;;;;;;;9.20;5.60;;;16.10;61.30;;;;;;3900498;30;20080;-66
2022/04/15 11:45:48;;;;;;;7.05;4.97;;;16.10;61.00;;;;;;3899815;30;20080;-66
2022/04/15 11:48:18;;;;;;;6.32;4.45;;;16.10;62.10;;;;;;3900358;30;20474;-66
2022/04/15 11:50:40;;;;;;;5.78;4.18;;;16.10;60.70;;;;;;3900166;30;20068;-66
2022/04/15 11:53:06;;;;;;;6.40;4.90;;;16.00;60.00;;;;;;3899902;30;20516;-66
2022/04/15 11:55:29;;;;;;;10.25;4.47;;;16.10;60.60;;;;;;3900241;30;20067;-66
2022/04/15 11:57:53;;;;;;;8.50;4.75;;;16.00;60.10;;;;;;3900076;30;20418;-66
2022/04/15 12:00:19;;;;;;;5.90;4.78;;;16.00;60.50;;;;;;3900168;30;20056;-64
2022/04/15 12:02:42;;;;;;;6.47;5.20;;;16.00;61.20;;;;;;3899512;30;20402;-65
2022/04/15 12:05:05;;;;;;;6.13;5.03;;;16.00;61.10;;;;;;3900049;30;20068;-63
2022/04/15 12:07:29;;;;;;;8.05;5.80;;;16.00;61.10;;;;;;3899753;30;20057;-64
2022/04/15 12:09:52;;;;;;;5.18;4.75;;;16.10;61.20;;;;;;3899519;30;20061;-65
2022/04/15 12:12:16;;;;;;;5.28;4.70;;;16.10;61.70;;;;;;3899796;30;20402;-65
2022/04/15 12:14:41;;;;;;;6.18;5.05;;;16.10;60.90;;;;;;3899571;30;20060;-65
2022/04/15 12:17:04;;;;;;;7.35;5.00;;;16.20;60.90;;;;;;3899718;30;20068;-65
2022/04/15 12:19:26;;;;;;;9.43;4.70;;;16.10;60.70;;;;;;3899857;30;20098;-64
2022/04/15 12:21:48;;;;;;;4.53;4.03;;;16.20;60.50;;;;;;3899903;30;20095;-64
2022/04/15 12:24:11;;;;;;;5.05;4.55;;;16.10;62.10;;;;;;3897740;30;20481;-65
2022/04/15 12:26:45;;;;;;;6.63;4.80;;;16.10;63.20;;;;;;3897422;30;20049;-64